Time;durP1;ratioP1;P1;durP2;ratioP2;P2;SDS_P1;SDS_P2;PMS_P1;PMS_P2;Temp;Humidity;BMP_temperature;BMP_pressure;BME280_temperature;BME280_humidity;BME280_pressure;Samples;Min_cycle;Max_cycle;Signal;HPM_P1;HPM_P2
2023/03/24 00:01:40;;;;;;;4.75;2.10;;;11.90;99.90;;;;;;5005639;28;20041;-57
2023/03/24 00:04:06;;;;;;;4.43;1.80;;;11.90;99.90;;;;;;5007884;28;20376;-58
2023/03/24 00:06:33;;;;;;;3.45;2.15;;;12.00;99.90;;;;;;5003798;28;20030;-57
2023/03/24 00:08:59;;;;;;;5.38;2.15;;;12.00;99.90;;;;;;5006499;28;20457;-57
2023/03/24 00:11:25;;;;;;;5.20;2.13;;;12.00;99.90;;;;;;5006706;28;20136;-57
2023/03/24 00:13:51;;;;;;;4.82;2.28;;;12.00;99.90;;;;;;5008803;28;20026;-57
2023/03/24 00:16:18;;;;;;;3.03;2.20;;;12.00;99.90;;;;;;4990398;28;20022;-57
2023/03/24 00:18:49;;;;;;;3.30;1.75;;;12.10;99.90;;;;;;4989485;28;20041;-58
2023/03/24 00:21:14;;;;;;;5.10;2.08;;;12.10;99.90;;;;;;5002869;28;20042;-57
2023/03/24 00:23:41;;;;;;;5.32;2.05;;;12.00;99.90;;;;;;5007566;28;20061;-57
2023/03/24 00:26:14;;;;;;;5.07;1.77;;;12.10;99.90;;;;;;5006693;28;20029;-56
2023/03/24 00:28:41;;;;;;;3.80;2.10;;;12.10;99.90;;;;;;5005121;28;20354;-57
2023/03/24 00:31:08;;;;;;;2.58;1.67;;;12.10;99.90;;;;;;5004748;28;20066;-57
2023/03/24 00:33:35;;;;;;;3.63;2.15;;;12.10;99.90;;;;;;5006235;28;20034;-57
2023/03/24 00:36:06;;;;;;;5.18;2.20;;;12.00;99.90;;;;;;4988721;28;20116;-57
2023/03/24 00:38:33;;;;;;;3.42;1.83;;;12.10;99.90;;;;;;5002410;28;20109;-57
2023/03/24 00:41:00;;;;;;;4.05;2.15;;;12.10;99.90;;;;;;5006202;28;20105;-57
2023/03/24 00:43:27;;;;;;;4.38;2.20;;;12.10;99.90;;;;;;5006701;28;20049;-57
2023/03/24 00:46:04;;;;;;;3.75;1.80;;;12.10;99.90;;;;;;5007799;28;20057;-57
2023/03/24 00:48:31;;;;;;;4.00;2.20;;;12.10;99.90;;;;;;5001680;28;20133;-57
2023/03/24 00:50:56;;;;;;;4.07;2.13;;;12.10;99.90;;;;;;5006900;28;20046;-57
2023/03/24 00:53:24;;;;;;;3.92;1.90;;;12.10;99.90;;;;;;5007353;28;20059;-57
2023/03/24 00:55:50;;;;;;;3.28;2.00;;;12.10;99.90;;;;;;5007078;28;20121;-58
2023/03/24 00:58:18;;;;;;;3.88;1.83;;;12.10;99.90;;;;;;5004801;28;20176;-57
2023/03/24 01:00:45;;;;;;;6.38;2.17;;;12.10;99.90;;;;;;5008346;28;20054;-57
2023/03/24 01:03:11;;;;;;;4.32;1.90;;;12.10;99.90;;;;;;5004573;28;20034;-57
2023/03/24 01:05:37;;;;;;;4.13;1.83;;;12.10;99.90;;;;;;5007536;28;20033;-57
2023/03/24 01:08:05;;;;;;;3.40;1.95;;;12.10;99.90;;;;;;5010252;28;20040;-58
2023/03/24 01:10:34;;;;;;;3.78;2.25;;;12.10;99.90;;;;;;5004816;28;20030;-58
2023/03/24 01:13:01;;;;;;;2.90;2.05;;;12.10;99.90;;;;;;5005169;28;20539;-58
2023/03/24 01:15:32;;;;;;;3.20;1.92;;;12.10;99.90;;;;;;5005111;28;20030;-57
2023/03/24 01:18:00;;;;;;;6.38;2.25;;;12.10;99.90;;;;;;5001056;28;20199;-57
2023/03/24 01:20:27;;;;;;;4.25;2.30;;;12.20;99.90;;;;;;5003903;28;20551;-57
2023/03/24 01:22:52;;;;;;;3.85;2.13;;;12.20;99.90;;;;;;5010695;28;20113;-57
2023/03/24 01:25:21;;;;;;;3.55;1.90;;;12.20;99.90;;;;;;5002132;28;20034;-57
2023/03/24 01:27:48;;;;;;;4.97;2.33;;;12.20;99.90;;;;;;5010763;28;20202;-58
2023/03/24 01:30:16;;;;;;;2.95;2.10;;;12.20;99.90;;;;;;5004338;28;20397;-57
2023/03/24 01:32:42;;;;;;;2.95;2.22;;;12.20;99.90;;;;;;5004561;28;20524;-57
2023/03/24 01:35:08;;;;;;;3.53;2.05;;;12.20;99.90;;;;;;5007125;28;20437;-57
2023/03/24 01:37:34;;;;;;;2.63;2.38;;;12.20;99.90;;;;;;5006563;28;20547;-57
2023/03/24 01:40:00;;;;;;;3.55;2.40;;;12.30;99.90;;;;;;5009873;28;20136;-57
2023/03/24 01:42:27;;;;;;;3.42;2.33;;;12.30;99.90;;;;;;5004926;28;20026;-58
2023/03/24 01:45:34;;;;;;;2.60;2.20;;;12.30;99.90;;;;;;5008555;28;20053;-57
2023/03/24 01:48:01;;;;;;;2.90;2.30;;;12.30;99.90;;;;;;4970381;28;20120;-57
2023/03/24 01:50:27;;;;;;;4.50;2.30;;;12.30;99.90;;;;;;5003009;28;20033;-58
2023/03/24 01:52:52;;;;;;;3.50;2.30;;;12.30;99.90;;;;;;5005822;28;20657;-58
2023/03/24 01:55:18;;;;;;;2.17;1.83;;;12.30;99.90;;;;;;5010226;28;20112;-58
2023/03/24 01:57:54;;;;;;;4.10;2.42;;;12.30;99.90;;;;;;5008265;28;20041;-58
2023/03/24 02:00:21;;;;;;;4.72;2.60;;;12.30;99.90;;;;;;5008373;28;20485;-58
2023/03/24 02:02:58;;;;;;;7.53;2.55;;;12.30;99.90;;;;;;5006431;28;20035;-58
2023/03/24 02:05:38;;;;;;;5.70;2.50;;;12.30;99.90;;;;;;5010797;28;21296;-58
2023/03/24 02:08:17;;;;;;;5.50;2.72;;;12.30;99.90;;;;;;5005813;28;20029;-62
2023/03/24 02:10:43;;;;;;;4.78;2.80;;;12.40;99.90;;;;;;5008054;28;20478;-62
2023/03/24 02:13:09;;;;;;;4.95;2.70;;;12.40;99.90;;;;;;5004134;28;20133;-62
2023/03/24 02:15:44;;;;;;;4.32;2.72;;;12.40;99.90;;;;;;5009445;28;20092;-62
2023/03/24 02:18:20;;;;;;;4.00;2.53;;;12.40;99.90;;;;;;5000394;28;20124;-62
2023/03/24 02:21:11;;;;;;;5.68;2.55;;;12.30;99.90;;;;;;5005029;28;20149;-62
2023/03/24 02:24:01;;;;;;;5.45;2.95;;;12.30;99.90;;;;;;5002410;28;20085;-62
2023/03/24 02:26:38;;;;;;;6.40;3.03;;;12.40;99.90;;;;;;5002505;28;20034;-62
2023/03/24 02:29:19;;;;;;;4.75;2.60;;;12.40;99.90;;;;;;5000444;28;20338;-62
2023/03/24 02:31:58;;;;;;;4.75;2.80;;;12.40;99.90;;;;;;5003130;28;20061;-63
2023/03/24 02:34:58;;;;;;;5.28;3.05;;;12.40;99.90;;;;;;5001580;28;20517;-63
2023/03/24 02:37:41;;;;;;;4.53;2.80;;;12.50;99.90;;;;;;5001871;28;20117;-62
2023/03/24 02:40:33;;;;;;;4.30;2.83;;;12.50;99.90;;;;;;5000171;28;20034;-62
2023/03/24 02:43:23;;;;;;;3.75;2.70;;;12.60;99.90;;;;;;5002238;28;20117;-62
2023/03/24 02:46:01;;;;;;;3.85;3.00;;;12.50;99.90;;;;;;5000820;28;20038;-62
2023/03/24 02:48:53;;;;;;;6.60;3.00;;;12.60;99.90;;;;;;4997832;28;20040;-62
2023/03/24 02:51:43;;;;;;;2.92;2.60;;;12.60;99.90;;;;;;5001709;28;20330;-62
2023/03/24 02:54:28;;;;;;;3.47;2.47;;;12.70;99.90;;;;;;4983932;28;20417;-62
2023/03/24 02:57:20;;;;;;;3.70;2.67;;;12.70;99.90;;;;;;5003280;28;20117;-62
2023/03/24 02:59:58;;;;;;;5.63;2.83;;;12.80;99.90;;;;;;5001850;28;20061;-63
2023/03/24 03:02:31;;;;;;;5.75;2.80;;;12.90;99.90;;;;;;5004562;28;20038;-63
2023/03/24 03:05:18;;;;;;;5.07;2.75;;;12.90;99.90;;;;;;5000203;28;20030;-63
2023/03/24 03:07:47;;;;;;;4.90;2.47;;;12.90;99.90;;;;;;5002075;28;20122;-62
2023/03/24 03:10:26;;;;;;;3.55;2.50;;;13.00;99.90;;;;;;5002612;28;20033;-63
2023/03/24 03:12:56;;;;;;;4.90;2.50;;;13.00;99.90;;;;;;5001811;28;20026;-63
2023/03/24 03:15:26;;;;;;;3.33;2.78;;;13.10;99.90;;;;;;5000537;28;20043;-63
2023/03/24 03:18:15;;;;;;;4.28;2.95;;;13.10;99.90;;;;;;5002387;28;20393;-63
2023/03/24 03:20:49;;;;;;;3.35;2.50;;;13.10;99.90;;;;;;5004661;28;20061;-63
2023/03/24 03:23:19;;;;;;;3.53;2.53;;;13.10;99.90;;;;;;5002957;28;20044;-64
2023/03/24 03:25:49;;;;;;;4.68;2.17;;;13.20;99.90;;;;;;5002382;28;20112;-64
2023/03/24 03:28:20;;;;;;;3.55;2.40;;;13.30;99.90;;;;;;4999095;28;20046;-64
2023/03/24 03:30:51;;;;;;;2.95;2.30;;;13.30;99.90;;;;;;5004126;28;20030;-63
2023/03/24 03:33:24;;;;;;;2.78;2.22;;;13.40;99.90;;;;;;4998889;28;20038;-64
2023/03/24 03:35:57;;;;;;;3.75;2.45;;;13.50;99.90;;;;;;5003162;28;20096;-64
2023/03/24 03:38:34;;;;;;;4.10;2.25;;;13.40;99.90;;;;;;5001808;28;20041;-64
2023/03/24 03:41:03;;;;;;;4.43;2.47;;;13.40;99.90;;;;;;5005252;28;20478;-64
2023/03/24 03:43:30;;;;;;;3.58;2.50;;;13.50;99.90;;;;;;5005407;28;20465;-64
2023/03/24 03:45:57;;;;;;;3.22;2.17;;;13.50;99.90;;;;;;5006991;28;20113;-64
2023/03/24 03:48:25;;;;;;;4.45;2.35;;;13.40;99.90;;;;;;5004505;28;20317;-64
2023/03/24 03:50:51;;;;;;;5.03;2.17;;;13.50;99.90;;;;;;5005518;28;20045;-63
2023/03/24 03:53:20;;;;;;;3.72;2.60;;;13.40;99.90;;;;;;5007943;28;20041;-64
2023/03/24 03:55:46;;;;;;;3.30;2.67;;;13.40;99.90;;;;;;5010289;28;20037;-63
2023/03/24 03:58:11;;;;;;;3.78;2.60;;;13.40;99.90;;;;;;5010033;28;20042;-64
2023/03/24 04:00:37;;;;;;;3.08;2.40;;;13.40;99.90;;;;;;5007486;28;20045;-64
2023/03/24 04:03:21;;;;;;;4.30;2.92;;;13.40;99.90;;;;;;5006303;28;20026;-63
2023/03/24 04:06:03;;;;;;;3.75;2.55;;;13.30;99.90;;;;;;5010527;28;20061;-63
2023/03/24 04:09:08;;;;;;;4.67;2.50;;;13.20;99.90;;;;;;5005908;28;20112;-63
2023/03/24 04:12:01;;;;;;;2.85;2.55;;;13.20;99.90;;;;;;5008188;28;20404;-63
2023/03/24 04:14:55;;;;;;;4.20;2.87;;;13.20;99.90;;;;;;5001509;28;20306;-63
2023/03/24 04:17:38;;;;;;;4.53;2.67;;;13.20;99.90;;;;;;5006782;28;20064;-63
2023/03/24 04:20:15;;;;;;;;;;;13.20;99.90;;;;;;5005016;28;20040;-63
2023/03/24 04:23:21;;;;;;;5.15;2.70;;;13.10;99.90;;;;;;5008256;28;19917;-63
2023/03/24 04:26:13;;;;;;;3.88;2.50;;;13.00;99.90;;;;;;4971740;28;20030;-62
2023/03/24 04:28:46;;;;;;;4.95;2.53;;;13.00;99.90;;;;;;5007927;28;20026;-63
2023/03/24 04:31:26;;;;;;;3.80;2.75;;;13.10;99.90;;;;;;5006801;28;20551;-63
2023/03/24 04:34:19;;;;;;;5.47;3.10;;;13.00;99.90;;;;;;5007526;28;20496;-64
2023/03/24 04:36:53;;;;;;;4.32;2.70;;;13.00;99.90;;;;;;5008092;28;20873;-63
2023/03/24 04:39:27;;;;;;;4.22;2.90;;;12.90;99.90;;;;;;5008608;28;20639;-63
2023/03/24 04:41:58;;;;;;;3.33;2.47;;;12.90;99.90;;;;;;5006203;28;20030;-63
2023/03/24 04:44:25;;;;;;;3.10;2.60;;;12.90;99.90;;;;;;5005779;28;20085;-64
2023/03/24 04:46:55;;;;;;;4.03;2.70;;;13.00;99.90;;;;;;5008639;28;20130;-63
2023/03/24 04:49:24;;;;;;;3.22;2.40;;;12.90;99.90;;;;;;5004974;28;20106;-63
2023/03/24 04:51:50;;;;;;;4.70;2.50;;;12.90;99.90;;;;;;5005070;28;20112;-63
2023/03/24 04:54:16;;;;;;;3.55;2.22;;;12.90;99.90;;;;;;5007383;28;20033;-64
2023/03/24 04:56:53;;;;;;;4.38;2.13;;;12.90;99.90;;;;;;5010847;28;20022;-63
2023/03/24 04:59:20;;;;;;;9.68;1.75;;;12.90;99.90;;;;;;5008600;28;20359;-63
2023/03/24 05:01:49;;;;;;;3.30;1.35;;;12.80;99.90;;;;;;5006851;28;20026;-63
2023/03/24 05:04:23;;;;;;;7.38;1.27;;;12.60;99.90;;;;;;5010211;28;20029;-64
2023/03/24 05:06:48;;;;;;;4.22;1.20;;;12.50;99.90;;;;;;5009329;28;20033;-64
2023/03/24 05:09:20;;;;;;;5.32;1.42;;;12.50;99.90;;;;;;5011427;28;20040;-64
2023/03/24 05:11:46;;;;;;;6.00;1.48;;;12.30;99.90;;;;;;5008188;28;20049;-64
2023/03/24 05:14:12;;;;;;;4.00;1.30;;;;;;;;;;5007961;28;20459;-63
2023/03/24 05:16:38;;;;;;;3.58;1.73;;;12.10;99.90;;;;;;5007510;28;20088;-64
2023/03/24 05:19:03;;;;;;;6.03;1.58;;;12.10;99.90;;;;;;5011062;28;20041;-65
2023/03/24 05:21:30;;;;;;;5.20;1.52;;;12.10;99.90;;;;;;5008694;28;20116;-63
2023/03/24 05:23:55;;;;;;;4.90;1.80;;;11.90;99.90;;;;;;5007074;28;20159;-63
2023/03/24 05:26:21;;;;;;;4.75;1.58;;;11.90;99.90;;;;;;5003808;28;20152;-64
2023/03/24 05:28:46;;;;;;;3.55;1.65;;;11.80;99.90;;;;;;5006214;28;20436;-64
2023/03/24 05:31:12;;;;;;;3.63;1.50;;;11.80;99.90;;;;;;5006281;28;20422;-63
2023/03/24 05:33:38;;;;;;;5.93;1.55;;;11.70;99.90;;;;;;5002955;28;20112;-64
2023/03/24 05:36:04;;;;;;;2.60;1.60;;;11.70;99.90;;;;;;5010447;28;20029;-66
2023/03/24 05:38:29;;;;;;;6.47;1.60;;;11.70;99.90;;;;;;5005636;28;20064;-64
2023/03/24 05:40:57;;;;;;;4.95;2.00;;;11.60;99.90;;;;;;5005549;28;20389;-64
2023/03/24 05:43:22;;;;;;;4.63;1.70;;;11.70;99.90;;;;;;5007061;28;20052;-64
2023/03/24 05:45:48;;;;;;;4.95;1.60;;;11.60;99.90;;;;;;5004039;28;20074;-62
2023/03/24 05:48:13;;;;;;;8.30;1.77;;;11.60;99.90;;;;;;5006687;28;20128;-63
2023/03/24 05:50:39;;;;;;;5.22;1.60;;;11.50;99.90;;;;;;5005874;28;20038;-62
2023/03/24 05:53:05;;;;;;;5.47;1.60;;;11.40;99.90;;;;;;5010005;28;20071;-62
2023/03/24 05:55:30;;;;;;;8.07;2.13;;;11.50;99.90;;;;;;5005368;28;20538;-62
2023/03/24 05:57:56;;;;;;;8.90;2.10;;;11.50;99.90;;;;;;5009857;28;20037;-62
2023/03/24 06:00:22;;;;;;;4.45;1.70;;;11.60;99.90;;;;;;5003097;28;20512;-62
2023/03/24 06:02:48;;;;;;;6.22;1.70;;;11.70;99.90;;;;;;5001480;28;20282;-62
2023/03/24 06:05:13;;;;;;;6.93;2.03;;;11.60;99.90;;;;;;5003378;28;20040;-62
2023/03/24 06:07:41;;;;;;;3.53;1.65;;;11.60;99.90;;;;;;5000999;28;20041;-62
2023/03/24 06:10:09;;;;;;;8.13;1.70;;;11.70;99.90;;;;;;4999731;28;20121;-62
2023/03/24 06:12:34;;;;;;;2.90;1.35;;;11.60;99.90;;;;;;5003005;28;20129;-63
2023/03/24 06:15:00;;;;;;;7.38;1.75;;;11.70;99.90;;;;;;5004148;28;20121;-62
2023/03/24 06:17:28;;;;;;;5.18;1.95;;;11.50;99.90;;;;;;5001526;28;20506;-62
2023/03/24 06:20:01;;;;;;;10.10;2.05;;;11.60;99.90;;;;;;4999332;28;20084;-62
2023/03/24 06:22:28;;;;;;;7.78;1.83;;;11.50;99.90;;;;;;5004424;28;20061;-62
2023/03/24 06:24:55;;;;;;;6.85;1.58;;;11.50;99.90;;;;;;5004955;28;20048;-62
2023/03/24 06:27:25;;;;;;;7.05;1.45;;;11.50;99.90;;;;;;4993530;28;20060;-63
2023/03/24 06:29:52;;;;;;;7.80;1.90;;;11.30;99.90;;;;;;4999089;28;20066;-62
2023/03/24 06:32:19;;;;;;;8.48;1.80;;;11.40;99.90;;;;;;4996441;28;20206;-62
2023/03/24 06:34:45;;;;;;;10.30;2.17;;;11.40;99.90;;;;;;5002929;28;20100;-62
2023/03/24 06:37:10;;;;;;;9.65;1.80;;;11.40;99.90;;;;;;5003544;28;20038;-63
2023/03/24 06:39:36;;;;;;;9.07;1.90;;;11.50;99.90;;;;;;5003374;28;20046;-63
2023/03/24 06:42:02;;;;;;;9.90;1.85;;;11.60;99.90;;;;;;5002446;28;20136;-62
2023/03/24 06:44:28;;;;;;;10.40;1.50;;;11.50;99.90;;;;;;5001284;28;20209;-63
2023/03/24 06:46:53;;;;;;;11.55;2.70;;;11.50;99.90;;;;;;5003220;28;20034;-63
2023/03/24 06:49:19;;;;;;;12.05;3.17;;;11.60;99.90;;;;;;5002563;28;20715;-63
2023/03/24 06:51:45;;;;;;;17.35;3.35;;;11.70;99.90;;;;;;5004350;28;20053;-63
2023/03/24 06:54:10;;;;;;;11.50;3.25;;;11.80;99.90;;;;;;5002696;28;20034;-63
2023/03/24 06:56:36;;;;;;;14.35;2.90;;;11.70;99.90;;;;;;5003544;28;20035;-63
2023/03/24 06:59:02;;;;;;;11.40;2.17;;;11.70;99.90;;;;;;5002286;28;20519;-62
2023/03/24 07:01:28;;;;;;;9.93;2.03;;;11.60;99.90;;;;;;5002724;28;20466;-63
2023/03/24 07:03:54;;;;;;;12.73;2.10;;;11.70;99.90;;;;;;5002854;28;20034;-63
2023/03/24 07:06:21;;;;;;;12.90;2.10;;;11.70;99.90;;;;;;5002454;28;20569;-61
2023/03/24 07:08:47;;;;;;;9.80;2.20;;;11.70;99.90;;;;;;5005015;28;20092;-61
2023/03/24 07:11:14;;;;;;;14.07;2.40;;;11.80;99.90;;;;;;5002576;28;20109;-61
2023/03/24 07:13:40;;;;;;;12.57;2.28;;;11.90;99.90;;;;;;5003614;28;20030;-61
2023/03/24 07:16:06;;;;;;;13.55;2.50;;;12.00;99.90;;;;;;5004356;28;20584;-61
2023/03/24 07:18:32;;;;;;;10.90;2.42;;;12.10;99.90;;;;;;4996595;28;20045;-61
2023/03/24 07:20:58;;;;;;;12.88;2.70;;;12.20;99.90;;;;;;5005755;28;20512;-61
2023/03/24 07:23:26;;;;;;;11.30;2.58;;;12.20;99.90;;;;;;5005393;28;20084;-61
2023/03/24 07:25:52;;;;;;;8.15;3.00;;;12.30;99.90;;;;;;5008465;28;20099;-61
2023/03/24 07:28:18;;;;;;;13.38;2.58;;;12.20;99.90;;;;;;5017858;28;20473;-62
2023/03/24 07:30:44;;;;;;;11.48;2.80;;;12.30;99.90;;;;;;5018525;28;20432;-62
2023/03/24 07:33:11;;;;;;;11.80;2.55;;;12.20;99.90;;;;;;5005274;28;20038;-61
2023/03/24 07:35:37;;;;;;;12.88;2.60;;;12.20;99.90;;;;;;5008690;28;20069;-61
2023/03/24 07:38:03;;;;;;;9.95;2.40;;;12.30;99.90;;;;;;5001507;28;20095;-61
2023/03/24 07:40:29;;;;;;;10.60;1.95;;;12.20;99.90;;;;;;4999654;28;20045;-61
2023/03/24 07:42:58;;;;;;;12.52;2.17;;;12.30;99.90;;;;;;5000388;28;20061;-61
2023/03/24 07:45:24;;;;;;;15.48;2.28;;;12.40;99.90;;;;;;5007856;28;20032;-62
2023/03/24 07:47:50;;;;;;;9.98;2.33;;;12.50;99.90;;;;;;5001829;28;20700;-61
2023/03/24 07:50:16;;;;;;;9.93;1.95;;;12.50;99.90;;;;;;5002883;28;20029;-62
2023/03/24 07:52:45;;;;;;;8.90;2.03;;;12.50;99.90;;;;;;5005158;28;20022;-62
2023/03/24 07:55:11;;;;;;;8.82;2.17;;;12.70;99.90;;;;;;5006577;28;20497;-61
2023/03/24 07:57:41;;;;;;;10.32;1.98;;;12.70;99.90;;;;;;5004549;28;20037;-61
2023/03/24 08:00:14;;;;;;;9.38;2.00;;;12.70;99.90;;;;;;5006896;28;20046;-61
2023/03/24 08:02:41;;;;;;;15.80;2.25;;;12.80;99.90;;;;;;5008420;28;20034;-62
2023/03/24 08:05:09;;;;;;;9.25;1.88;;;12.90;99.90;;;;;;5011968;28;20072;-61
2023/03/24 08:07:35;;;;;;;9.93;2.42;;;12.80;99.90;;;;;;5003699;28;20563;-62
2023/03/24 08:10:00;;;;;;;12.02;2.33;;;12.80;99.90;;;;;;5008524;28;20025;-62
2023/03/24 08:12:26;;;;;;;11.77;2.22;;;12.80;99.90;;;;;;5010118;28;20644;-62
2023/03/24 08:14:51;;;;;;;15.05;2.80;;;12.80;99.90;;;;;;5005121;28;20136;-61
2023/03/24 08:17:17;;;;;;;14.57;2.63;;;12.70;99.90;;;;;;5004376;28;20056;-61
2023/03/24 08:19:42;;;;;;;9.35;2.55;;;12.70;99.90;;;;;;5005314;28;20026;-62
2023/03/24 08:22:08;;;;;;;12.07;2.53;;;12.70;99.90;;;;;;5005428;28;20105;-62
2023/03/24 08:24:35;;;;;;;15.07;3.15;;;12.50;99.90;;;;;;5007325;28;20041;-62
2023/03/24 08:27:05;;;;;;;14.05;2.97;;;12.50;99.90;;;;;;5004720;28;20071;-61
2023/03/24 08:29:33;;;;;;;14.70;2.67;;;12.50;99.90;;;;;;5009945;28;20395;-61
2023/03/24 08:31:59;;;;;;;10.98;2.55;;;12.50;99.90;;;;;;5006635;28;20034;-62
2023/03/24 08:34:25;;;;;;;14.60;2.70;;;12.60;99.90;;;;;;5005015;28;20030;-61
2023/03/24 08:36:51;;;;;;;15.60;3.47;;;12.70;99.90;;;;;;5005199;28;20449;-62
2023/03/24 08:39:17;;;;;;;11.75;2.85;;;12.80;99.90;;;;;;5008147;28;20064;-61
2023/03/24 08:41:44;;;;;;;19.17;2.92;;;12.90;99.90;;;;;;5005275;28;20393;-62
2023/03/24 08:44:10;;;;;;;12.20;2.47;;;12.90;99.90;;;;;;5007398;28;20058;-61
2023/03/24 08:46:36;;;;;;;12.95;2.92;;;13.10;99.90;;;;;;5007757;28;20034;-62
2023/03/24 08:49:02;;;;;;;10.43;2.53;;;13.10;99.90;;;;;;5005218;28;20033;-62
2023/03/24 08:51:28;;;;;;;11.93;3.00;;;13.00;99.90;;;;;;5004624;28;20273;-62
2023/03/24 08:53:54;;;;;;;9.27;2.60;;;13.20;99.90;;;;;;5009732;28;20477;-61
2023/03/24 08:56:20;;;;;;;12.70;2.72;;;13.40;99.90;;;;;;5008451;28;20485;-61
2023/03/24 08:58:50;;;;;;;11.20;2.75;;;13.50;99.90;;;;;;5004493;28;20153;-61
2023/03/24 09:01:16;;;;;;;14.00;2.97;;;13.40;99.90;;;;;;5006190;28;20476;-62
2023/03/24 09:03:43;;;;;;;12.00;2.50;;;13.40;99.90;;;;;;5008300;28;20397;-62
2023/03/24 09:06:09;;;;;;;12.48;2.80;;;13.50;99.90;;;;;;5002349;28;20030;-62
2023/03/24 09:08:35;;;;;;;12.90;2.70;;;13.50;99.90;;;;;;5002739;28;20034;-62
2023/03/24 09:11:01;;;;;;;11.52;2.28;;;13.60;99.90;;;;;;5009634;28;20043;-62
2023/03/24 09:13:26;;;;;;;8.18;2.22;;;13.60;99.90;;;;;;5003742;28;20022;-61
2023/03/24 09:15:56;;;;;;;13.30;2.45;;;13.60;99.90;;;;;;5006912;28;20460;-62
2023/03/24 09:18:22;;;;;;;11.65;2.40;;;13.60;99.90;;;;;;4985615;28;20366;-61
2023/03/24 09:20:48;;;;;;;13.48;2.92;;;13.60;99.90;;;;;;5006970;28;20033;-61
2023/03/24 09:23:14;;;;;;;13.95;2.83;;;13.70;99.90;;;;;;5013448;28;20132;-61
2023/03/24 09:25:39;;;;;;;15.70;2.53;;;13.60;99.90;;;;;;5005855;28;20570;-62
2023/03/24 09:28:07;;;;;;;14.50;2.85;;;13.60;99.90;;;;;;5009195;28;20370;-61
2023/03/24 09:30:32;;;;;;;12.70;2.70;;;13.60;99.90;;;;;;4983651;28;20289;-62
2023/03/24 09:32:58;;;;;;;8.82;2.40;;;13.50;99.90;;;;;;5004570;28;20493;-62
2023/03/24 09:35:26;;;;;;;13.27;2.63;;;13.60;99.90;;;;;;5003422;28;20041;-61
2023/03/24 09:37:52;;;;;;;13.43;2.70;;;13.70;99.90;;;;;;5008087;28;20042;-62
2023/03/24 09:40:24;;;;;;;15.88;2.45;;;13.60;99.90;;;;;;5004548;28;20395;-62
2023/03/24 09:43:07;;;;;;;13.68;2.65;;;13.70;99.90;;;;;;5003181;28;20026;-62
2023/03/24 09:45:38;;;;;;;12.75;2.63;;;13.80;1.00;;;;;;5003754;28;20069;-62
2023/03/24 09:48:11;;;;;;;10.65;2.65;;;14.00;1.00;;;;;;5003539;28;20034;-61
2023/03/24 09:50:50;;;;;;;7.82;1.88;;;14.10;1.00;;;;;;5001830;28;20076;-62
2023/03/24 09:53:30;;;;;;;10.93;2.63;;;13.90;1.00;;;;;;5007840;28;20462;-62
2023/03/24 09:56:11;;;;;;;9.80;2.00;;;14.00;1.00;;;;;;5003669;28;20052;-61
2023/03/24 09:58:40;;;;;;;11.98;2.13;;;13.90;1.00;;;;;;5009857;28;20325;-61
2023/03/24 10:01:11;;;;;;;6.90;1.80;;;14.00;1.00;;;;;;5004295;28;20038;-62
2023/03/24 10:03:37;;;;;;;12.10;2.05;;;13.80;1.00;;;;;;5002070;28;20112;-62
2023/03/24 10:06:25;;;;;;;12.68;2.13;;;13.90;1.00;;;;;;5003327;28;20622;-61
2023/03/24 10:09:22;;;;;;;13.25;2.13;;;13.80;1.00;;;;;;5003017;28;20034;-61
2023/03/24 10:12:15;;;;;;;12.52;2.10;;;13.50;1.00;;;;;;5001266;28;20308;-62
2023/03/24 10:14:54;;;;;;;8.68;2.03;;;13.60;1.00;;;;;;5001508;28;20038;-61
2023/03/24 10:17:38;;;;;;;9.75;2.00;;;13.80;1.00;;;;;;5002193;28;20088;-61
2023/03/24 10:20:11;;;;;;;;;;;13.90;1.00;;;;;;5004414;28;20018;-62
2023/03/24 10:26:22;;;;;;;10.10;2.15;;;14.00;1.00;;;;;;4992728;28;20068;-62
2023/03/24 10:29:03;;;;;;;10.27;2.22;;;14.00;1.00;;;;;;5004285;28;20026;-62
2023/03/24 10:31:33;;;;;;;9.43;2.13;;;14.00;1.00;;;;;;5005220;28;20643;-62
2023/03/24 10:33:59;;;;;;;11.13;2.22;;;14.10;1.00;;;;;;5001392;28;20554;-62
2023/03/24 10:36:26;;;;;;;7.03;2.10;;;14.10;1.00;;;;;;5003887;28;20033;-61
2023/03/24 10:38:52;;;;;;;9.32;2.15;;;14.10;1.00;;;;;;5005022;28;20082;-62
2023/03/24 10:41:20;;;;;;;11.18;2.00;;;14.10;1.00;;;;;;4985950;28;20034;-61
2023/03/24 10:43:48;;;;;;;8.25;2.05;;;14.00;1.00;;;;;;5004046;28;20120;-61
2023/03/24 10:46:18;;;;;;;11.20;2.42;;;14.00;1.00;;;;;;5003642;28;20034;-61
2023/03/24 10:48:47;;;;;;;11.85;1.98;;;14.00;1.00;;;;;;5002927;28;20277;-61
2023/03/24 10:51:35;;;;;;;8.43;2.00;;;14.10;1.00;;;;;;4999996;28;20034;-61
2023/03/24 10:54:14;;;;;;;7.95;2.03;;;14.10;99.90;;;;;;5005366;28;20488;-62
2023/03/24 10:57:00;;;;;;;9.23;1.90;;;14.10;99.90;;;;;;5004736;28;20568;-62
2023/03/24 11:03:14;;;;;;;9.75;2.20;;;14.20;99.90;;;;;;4953165;28;20321;-62
2023/03/24 11:05:40;;;;;;;9.27;2.55;;;14.40;99.90;;;;;;4991158;28;20038;-62
2023/03/24 11:08:33;;;;;;;10.27;2.40;;;14.40;99.90;;;;;;4997203;28;20030;-62
2023/03/24 11:10:59;;;;;;;15.82;2.00;;;14.40;99.90;;;;;;5004429;28;20054;-62
2023/03/24 11:13:32;;;;;;;12.45;2.38;;;14.30;99.90;;;;;;5005507;28;20738;-62
2023/03/24 11:16:14;;;;;;;;;;;14.30;99.90;;;;;;4987258;28;20461;-63
2023/03/24 11:19:01;;;;;;;10.07;2.50;;;14.30;99.90;;;;;;5000671;28;19971;-63
2023/03/24 11:21:30;;;;;;;9.63;2.30;;;14.40;99.90;;;;;;4999975;28;20134;-63
2023/03/24 11:24:01;;;;;;;11.68;2.38;;;14.60;99.90;;;;;;5002700;28;20689;-63
2023/03/24 11:26:35;;;;;;;8.68;2.38;;;14.60;99.90;;;;;;5000725;28;20363;-63
2023/03/24 11:29:17;;;;;;;8.18;1.92;;;14.50;99.90;;;;;;5001708;28;20456;-63
2023/03/24 11:31:55;;;;;;;10.25;2.30;;;14.70;99.90;;;;;;5003758;28;20049;-63
2023/03/24 11:34:24;;;;;;;10.63;2.13;;;14.60;99.90;;;;;;5000928;28;20537;-63
2023/03/24 11:36:53;;;;;;;6.95;2.15;;;14.50;99.90;;;;;;5002454;28;20037;-62
2023/03/24 11:39:18;;;;;;;9.15;2.45;;;14.60;99.90;;;;;;4998733;28;20236;-62
2023/03/24 11:42:09;;;;;;;7.50;2.22;;;14.50;99.90;;;;;;5000607;28;20578;-63
2023/03/24 11:44:37;;;;;;;10.30;2.50;;;14.70;99.90;;;;;;5000918;28;20053;-63
2023/03/24 11:47:23;;;;;;;10.05;2.20;;;14.80;99.90;;;;;;4998324;28;20381;-62
2023/03/24 11:50:07;;;;;;;8.10;2.10;;;14.90;99.90;;;;;;5001379;28;20022;-63
2023/03/24 11:53:01;;;;;;;8.10;2.53;;;14.90;99.90;;;;;;5000883;28;20136;-63
2023/03/24 11:58:55;;;;;;;7.90;1.77;;;15.00;99.90;;;;;;5826209;23;20099;-62
2023/03/24 12:01:29;;;;;;;6.60;2.10;;;14.90;99.90;;;;;;5009099;28;20520;-62
2023/03/24 12:04:23;;;;;;;9.90;2.67;;;14.80;99.90;;;;;;4993010;28;20040;-62
2023/03/24 12:06:52;;;;;;;11.20;2.45;;;14.90;99.90;;;;;;5005184;28;20041;-62
2023/03/24 12:09:22;;;;;;;9.07;2.20;;;14.80;99.90;;;;;;5005797;28;20026;-61
2023/03/24 12:11:58;;;;;;;8.05;2.20;;;14.70;99.90;;;;;;4998997;28;20475;-61
2023/03/24 12:14:41;;;;;;;11.15;2.47;;;14.70;99.90;;;;;;4995329;28;20445;-61
2023/03/24 12:17:15;;;;;;;10.10;1.97;;;14.90;99.90;;;;;;5004651;28;20050;-61
2023/03/24 12:20:03;;;;;;;6.68;1.90;;;15.10;99.90;;;;;;4997982;28;20261;-62
2023/03/24 12:23:09;;;;;;;8.27;2.25;;;15.10;99.90;;;;;;4994561;28;20457;-62
2023/03/24 12:26:09;;;;;;;7.05;1.90;;;15.10;99.90;;;;;;4996434;28;20034;-61
2023/03/24 12:28:53;;;;;;;12.15;2.08;;;15.00;99.90;;;;;;4995139;28;20026;-61
2023/03/24 12:31:46;;;;;;;7.10;2.05;;;14.90;99.90;;;;;;4994424;28;20184;-61
2023/03/24 12:34:41;;;;;;;6.83;2.47;;;14.90;99.90;;;;;;4999700;28;20374;-61
2023/03/24 12:37:39;;;;;;;8.85;2.17;;;14.90;99.90;;;;;;4978785;28;20263;-61
2023/03/24 12:40:37;;;;;;;8.20;2.63;;;14.90;99.90;;;;;;4970429;28;20137;-62
2023/03/24 12:43:25;;;;;;;6.95;1.88;;;14.80;99.90;;;;;;4994522;28;20034;-62
2023/03/24 12:45:55;;;;;;;7.07;2.30;;;14.80;99.90;;;;;;4994394;28;20030;-62
2023/03/24 12:48:37;;;;;;;7.63;2.33;;;14.80;99.90;;;;;;4996001;28;20042;-62
2023/03/24 12:51:23;;;;;;;9.23;2.30;;;14.90;99.90;;;;;;4999647;28;20065;-61
2023/03/24 12:54:12;;;;;;;8.93;2.10;;;15.00;99.90;;;;;;5017031;28;20077;-62
2023/03/24 12:57:10;;;;;;;8.38;2.30;;;15.00;99.90;;;;;;4993009;28;20030;-61
2023/03/24 12:59:50;;;;;;;9.70;2.35;;;15.00;99.90;;;;;;5001672;28;20484;-62
2023/03/24 13:02:31;;;;;;;7.70;2.50;;;15.00;99.90;;;;;;5005237;28;20042;-62
2023/03/24 13:05:04;;;;;;;7.15;2.05;;;14.80;99.90;;;;;;4998806;28;20046;-61
2023/03/24 13:07:42;;;;;;;8.48;2.20;;;14.70;99.90;;;;;;5002364;28;20492;-61
2023/03/24 13:10:20;;;;;;;8.95;2.50;;;14.60;99.90;;;;;;5001661;28;20485;-61
2023/03/24 13:13:01;;;;;;;10.60;2.60;;;14.70;99.90;;;;;;5003696;28;20034;-62
2023/03/24 13:15:35;;;;;;;10.38;2.30;;;14.70;99.90;;;;;;5003528;28;20067;-61
2023/03/24 13:18:09;;;;;;;9.35;2.72;;;14.60;99.90;;;;;;5003827;28;20401;-61
2023/03/24 13:20:49;;;;;;;9.57;2.10;;;14.40;99.90;;;;;;5002628;28;20201;-60
2023/03/24 13:23:54;;;;;;;11.88;2.33;;;13.80;99.90;;;;;;5004762;28;20721;-61